sensor_id;sensor_type;location;lat;lon;timestamp;pressure;altitude;pressure_sealevel;temperature;humidity
72024;BME280;59889;50.700;5.440;2023-04-06T00:00:39;100236.80;;;21.41;34.08
72024;BME280;59889;50.700;5.440;2023-04-06T00:03:04;100233.74;;;20.96;34.34
72024;BME280;59889;50.700;5.440;2023-04-06T00:05:29;100232.47;;;21.05;34.22
72024;BME280;59889;50.700;5.440;2023-04-06T00:07:54;100232.94;;;21.31;34.17
72024;BME280;59889;50.700;5.440;2023-04-06T00:10:19;100230.14;;;21.11;34.13
72024;BME280;59889;50.700;5.440;2023-04-06T00:12:44;100233.27;;;21.05;34.21
72024;BME280;59889;50.700;5.440;2023-04-06T00:15:10;100229.54;;;20.84;34.17
72024;BME280;59889;50.700;5.440;2023-04-06T00:17:34;100227.26;;;21.05;34.21
72024;BME280;59889;50.700;5.440;2023-04-06T00:19:59;100223.24;;;20.97;34.27
72024;BME280;59889;50.700;5.440;2023-04-06T00:22:24;100219.30;;;20.84;34.17
72024;BME280;59889;50.700;5.440;2023-04-06T00:24:49;100217.49;;;21.05;34.18
72024;BME280;59889;50.700;5.440;2023-04-06T00:27:14;100213.58;;;21.05;34.21
72024;BME280;59889;50.700;5.440;2023-04-06T00:29:40;100208.51;;;21.18;34.08
72024;BME280;59889;50.700;5.440;2023-04-06T00:32:05;100206.82;;;21.31;34.14
72024;BME280;59889;50.700;5.440;2023-04-06T00:34:30;100202.65;;;21.10;34.17
72024;BME280;59889;50.700;5.440;2023-04-06T00:36:55;100198.81;;;21.31;34.21
72024;BME280;59889;50.700;5.440;2023-04-06T00:39:20;100195.87;;;21.04;34.23
72024;BME280;59889;50.700;5.440;2023-04-06T00:41:46;100194.14;;;20.98;34.27
72024;BME280;59889;50.700;5.440;2023-04-06T00:44:10;100190.49;;;21.08;34.12
72024;BME280;59889;50.700;5.440;2023-04-06T00:46:35;100187.97;;;21.17;34.05
72024;BME280;59889;50.700;5.440;2023-04-06T00:49:00;100187.71;;;21.18;34.07
72024;BME280;59889;50.700;5.440;2023-04-06T00:51:25;100186.48;;;21.26;34.24
72024;BME280;59889;50.700;5.440;2023-04-06T00:53:51;100183.91;;;21.32;34.12
72024;BME280;59889;50.700;5.440;2023-04-06T00:56:15;100183.31;;;21.29;34.19
72024;BME280;59889;50.700;5.440;2023-04-06T00:58:40;100182.99;;;21.31;34.16
72024;BME280;59889;50.700;5.440;2023-04-06T01:01:06;100182.35;;;21.29;34.21
72024;BME280;59889;50.700;5.440;2023-04-06T01:03:30;100179.88;;;21.12;34.10
72024;BME280;59889;50.700;5.440;2023-04-06T01:05:56;100177.31;;;20.98;34.26
72024;BME280;59889;50.700;5.440;2023-04-06T01:08:21;100175.01;;;21.36;34.08
72024;BME280;59889;50.700;5.440;2023-04-06T01:10:46;100171.84;;;21.01;34.23
72024;BME280;59889;50.700;5.440;2023-04-06T01:13:11;100170.63;;;21.20;34.31
72024;BME280;59889;50.700;5.440;2023-04-06T01:15:36;100169.92;;;21.02;34.25
72024;BME280;59889;50.700;5.440;2023-04-06T01:18:01;100168.27;;;21.04;34.23
72024;BME280;59889;50.700;5.440;2023-04-06T01:20:27;100169.48;;;21.20;34.29
72024;BME280;59889;50.700;5.440;2023-04-06T01:22:52;100169.65;;;21.14;34.08
72024;BME280;59889;50.700;5.440;2023-04-06T01:25:17;100171.63;;;21.30;34.16
72024;BME280;59889;50.700;5.440;2023-04-06T01:27:42;100168.64;;;21.05;34.16
72024;BME280;59889;50.700;5.440;2023-04-06T01:30:07;100160.45;;;21.30;34.09
72024;BME280;59889;50.700;5.440;2023-04-06T01:32:32;100158.36;;;21.04;34.18
72024;BME280;59889;50.700;5.440;2023-04-06T01:34:57;100158.19;;;21.05;34.13
72024;BME280;59889;50.700;5.440;2023-04-06T01:37:22;100155.47;;;21.08;34.13
72024;BME280;59889;50.700;5.440;2023-04-06T01:39:47;100154.61;;;21.18;34.30
72024;BME280;59889;50.700;5.440;2023-04-06T01:42:12;100156.24;;;21.06;34.17
72024;BME280;59889;50.700;5.440;2023-04-06T01:44:37;100152.31;;;20.94;34.29
72024;BME280;59889;50.700;5.440;2023-04-06T01:47:02;100149.73;;;21.15;34.31
72024;BME280;59889;50.700;5.440;2023-04-06T01:49:27;100150.33;;;20.83;34.10
72024;BME280;59889;50.700;5.440;2023-04-06T01:51:53;100146.80;;;20.80;34.13
72024;BME280;59889;50.700;5.440;2023-04-06T01:54:17;100147.09;;;21.25;34.17
72024;BME280;59889;50.700;5.440;2023-04-06T01:56:43;100145.46;;;20.99;34.17
72024;BME280;59889;50.700;5.440;2023-04-06T01:59:08;100142.98;;;21.18;34.01
72024;BME280;59889;50.700;5.440;2023-04-06T02:01:33;100138.35;;;21.19;34.28
72024;BME280;59889;50.700;5.440;2023-04-06T02:03:58;100136.96;;;21.00;34.20
72024;BME280;59889;50.700;5.440;2023-04-06T02:06:23;100132.78;;;20.89;34.31
72024;BME280;59889;50.700;5.440;2023-04-06T02:08:48;100129.97;;;20.86;34.37
72024;BME280;59889;50.700;5.440;2023-04-06T02:11:13;100132.32;;;21.14;34.33
72024;BME280;59889;50.700;5.440;2023-04-06T02:13:38;100126.64;;;20.92;34.28
72024;BME280;59889;50.700;5.440;2023-04-06T02:16:03;100123.55;;;21.19;34.27
72024;BME280;59889;50.700;5.440;2023-04-06T02:18:30;100119.41;;;20.86;34.39
72024;BME280;59889;50.700;5.440;2023-04-06T02:20:54;100120.38;;;20.97;34.24
72024;BME280;59889;50.700;5.440;2023-04-06T02:23:18;100119.18;;;20.90;34.32
72024;BME280;59889;50.700;5.440;2023-04-06T02:25:43;100117.74;;;21.19;34.24
72024;BME280;59889;50.700;5.440;2023-04-06T02:28:08;100116.05;;;21.18;34.30
72024;BME280;59889;50.700;5.440;2023-04-06T02:30:34;100113.45;;;20.91;34.33
72024;BME280;59889;50.700;5.440;2023-04-06T02:32:59;100110.19;;;21.17;34.23
72024;BME280;59889;50.700;5.440;2023-04-06T02:35:24;100107.43;;;21.14;34.32
72024;BME280;59889;50.700;5.440;2023-04-06T02:37:49;100105.67;;;21.08;34.37
72024;BME280;59889;50.700;5.440;2023-04-06T02:40:14;100101.19;;;21.08;34.39
72024;BME280;59889;50.700;5.440;2023-04-06T02:42:39;100101.08;;;20.80;34.45
72024;BME280;59889;50.700;5.440;2023-04-06T02:45:05;100102.14;;;20.91;34.25
72024;BME280;59889;50.700;5.440;2023-04-06T02:47:29;100100.94;;;21.14;34.26
72024;BME280;59889;50.700;5.440;2023-04-06T02:49:55;100099.50;;;20.90;34.33
72024;BME280;59889;50.700;5.440;2023-04-06T02:52:20;100095.13;;;20.86;34.34
72024;BME280;59889;50.700;5.440;2023-04-06T02:54:45;100091.55;;;21.14;34.31
72024;BME280;59889;50.700;5.440;2023-04-06T02:57:10;100093.15;;;21.09;34.34
72024;BME280;59889;50.700;5.440;2023-04-06T02:59:35;100092.53;;;20.91;34.31
72024;BME280;59889;50.700;5.440;2023-04-06T03:02:00;100090.37;;;20.92;34.27
72024;BME280;59889;50.700;5.440;2023-04-06T03:04:25;100087.40;;;20.97;34.15
72024;BME280;59889;50.700;5.440;2023-04-06T03:06:50;100084.25;;;21.01;34.10
72024;BME280;59889;50.700;5.440;2023-04-06T03:09:15;100084.56;;;21.12;34.24
72024;BME280;59889;50.700;5.440;2023-04-06T03:11:40;100086.16;;;21.13;34.24
72024;BME280;59889;50.700;5.440;2023-04-06T03:14:05;100084.47;;;20.92;34.23
72024;BME280;59889;50.700;5.440;2023-04-06T03:16:30;100082.25;;;21.13;34.26
72024;BME280;59889;50.700;5.440;2023-04-06T03:18:55;100081.76;;;20.92;34.20
72024;BME280;59889;50.700;5.440;2023-04-06T03:21:20;100076.58;;;21.10;34.26
72024;BME280;59889;50.700;5.440;2023-04-06T03:23:46;100077.38;;;21.21;34.15
72024;BME280;59889;50.700;5.440;2023-04-06T03:26:11;100078.07;;;21.19;34.13
72024;BME280;59889;50.700;5.440;2023-04-06T03:28:36;100074.74;;;21.05;34.35
72024;BME280;59889;50.700;5.440;2023-04-06T03:31:01;100074.07;;;21.13;34.23
72024;BME280;59889;50.700;5.440;2023-04-06T03:33:26;100072.23;;;21.06;34.30
72024;BME280;59889;50.700;5.440;2023-04-06T03:35:51;100070.44;;;20.71;34.45
72024;BME280;59889;50.700;5.440;2023-04-06T03:38:16;100068.35;;;20.95;34.43
72024;BME280;59889;50.700;5.440;2023-04-06T03:40:41;100071.07;;;20.70;34.48
72024;BME280;59889;50.700;5.440;2023-04-06T03:43:06;100069.09;;;20.84;34.28
72024;BME280;59889;50.700;5.440;2023-04-06T03:45:31;100070.32;;;20.71;34.41
72024;BME280;59889;50.700;5.440;2023-04-06T03:47:56;100069.22;;;20.72;34.39
72024;BME280;59889;50.700;5.440;2023-04-06T03:50:21;100066.56;;;20.80;34.27
72024;BME280;59889;50.700;5.440;2023-04-06T03:52:46;100066.15;;;21.16;34.16
72024;BME280;59889;50.700;5.440;2023-04-06T03:55:11;100063.61;;;20.96;34.41
72024;BME280;59889;50.700;5.440;2023-04-06T03:57:36;100060.52;;;21.03;34.31
72024;BME280;59889;50.700;5.440;2023-04-06T04:00:02;100059.75;;;20.88;34.15
72024;BME280;59889;50.700;5.440;2023-04-06T04:02:27;100059.47;;;21.00;34.33
72024;BME280;59889;50.700;5.440;2023-04-06T04:04:52;100060.55;;;20.84;34.23
72024;BME280;59889;50.700;5.440;2023-04-06T04:07:17;100061.15;;;20.99;34.36
72024;BME280;59889;50.700;5.440;2023-04-06T04:09:42;100065.04;;;20.77;34.33
72024;BME280;59889;50.700;5.440;2023-04-06T04:12:07;100065.66;;;21.02;34.30
72024;BME280;59889;50.700;5.440;2023-04-06T04:14:33;100066.22;;;20.88;34.18
72024;BME280;59889;50.700;5.440;2023-04-06T04:16:58;100064.14;;;21.03;34.29
72024;BME280;59889;50.700;5.440;2023-04-06T04:19:23;100065.45;;;20.81;34.27
72024;BME280;59889;50.700;5.440;2023-04-06T04:21:48;100067.34;;;21.16;34.09
72024;BME280;59889;50.700;5.440;2023-04-06T04:24:13;100069.24;;;20.72;34.37
72024;BME280;59889;50.700;5.440;2023-04-06T04:26:38;100069.36;;;20.79;34.27
72024;BME280;59889;50.700;5.440;2023-04-06T04:29:03;100066.70;;;21.08;34.19
72024;BME280;59889;50.700;5.440;2023-04-06T04:31:28;100066.94;;;21.03;34.25
72024;BME280;59889;50.700;5.440;2023-04-06T04:33:53;100068.16;;;20.76;34.27
72024;BME280;59889;50.700;5.440;2023-04-06T04:36:18;100068.78;;;21.03;34.27
72024;BME280;59889;50.700;5.440;2023-04-06T04:38:43;100068.58;;;21.07;34.17
72024;BME280;59889;50.700;5.440;2023-04-06T04:41:08;100068.39;;;20.97;34.32
72024;BME280;59889;50.700;5.440;2023-04-06T04:43:33;100068.82;;;20.89;34.43
72024;BME280;59889;50.700;5.440;2023-04-06T04:45:58;100066.69;;;20.84;34.20
72024;BME280;59889;50.700;5.440;2023-04-06T04:48:23;100064.04;;;20.75;34.27
72024;BME280;59889;50.700;5.440;2023-04-06T04:50:48;100061.48;;;21.08;34.18
72024;BME280;59889;50.700;5.440;2023-04-06T04:53:13;100060.50;;;20.94;34.33
72024;BME280;59889;50.700;5.440;2023-04-06T04:55:39;100060.12;;;20.84;34.18
72024;BME280;59889;50.700;5.440;2023-04-06T04:58:04;100057.09;;;20.78;33.88
72024;BME280;59889;50.700;5.440;2023-04-06T05:00:29;100061.71;;;21.32;33.24
72024;BME280;59889;50.700;5.440;2023-04-06T05:02:54;100058.23;;;21.09;32.66
72024;BME280;59889;50.700;5.440;2023-04-06T05:05:19;100059.89;;;20.98;32.42
72024;BME280;59889;50.700;5.440;2023-04-06T05:07:45;100063.84;;;20.81;32.28
72024;BME280;59889;50.700;5.440;2023-04-06T05:10:10;100063.50;;;20.87;31.95
72024;BME280;59889;50.700;5.440;2023-04-06T05:12:35;100063.36;;;20.72;31.75
72024;BME280;59889;50.700;5.440;2023-04-06T05:15:00;100062.18;;;20.86;31.37
72024;BME280;59889;50.700;5.440;2023-04-06T05:17:25;100063.41;;;20.98;31.32
72024;BME280;59889;50.700;5.440;2023-04-06T05:19:51;100062.15;;;20.64;31.50
72024;BME280;59889;50.700;5.440;2023-04-06T05:22:16;100064.09;;;21.33;31.13
72024;BME280;59889;50.700;5.440;2023-04-06T05:24:41;100063.32;;;20.82;30.93
72024;BME280;59889;50.700;5.440;2023-04-06T05:27:06;100065.10;;;20.73;30.94
72024;BME280;59889;50.700;5.440;2023-04-06T05:29:32;100063.67;;;20.62;30.96
72024;BME280;59889;50.700;5.440;2023-04-06T05:31:57;100064.07;;;20.63;30.76
72024;BME280;59889;50.700;5.440;2023-04-06T05:34:22;100064.34;;;20.67;30.56
72024;BME280;59889;50.700;5.440;2023-04-06T05:36:47;100062.39;;;20.54;30.48
72024;BME280;59889;50.700;5.440;2023-04-06T05:39:12;100062.29;;;20.62;30.29
72024;BME280;59889;50.700;5.440;2023-04-06T05:41:37;100061.96;;;20.51;30.29
72024;BME280;59889;50.700;5.440;2023-04-06T05:44:03;100062.14;;;20.72;29.89
72024;BME280;59889;50.700;5.440;2023-04-06T05:46:36;100061.04;;;20.61;29.75
72024;BME280;59889;50.700;5.440;2023-04-06T05:48:54;100059.85;;;20.58;29.72
72024;BME280;59889;50.700;5.440;2023-04-06T05:51:19;100060.52;;;20.80;29.64
72024;BME280;59889;50.700;5.440;2023-04-06T05:53:44;100058.34;;;20.87;29.39
72024;BME280;59889;50.700;5.440;2023-04-06T05:56:10;100059.00;;;20.56;29.38
72024;BME280;59889;50.700;5.440;2023-04-06T05:58:36;100062.42;;;20.93;29.06
72024;BME280;59889;50.700;5.440;2023-04-06T06:01:01;100058.46;;;20.64;29.07
72024;BME280;59889;50.700;5.440;2023-04-06T06:03:26;100059.25;;;20.44;29.12
72024;BME280;59889;50.700;5.440;2023-04-06T06:05:51;100058.52;;;20.77;29.00
72024;BME280;59889;50.700;5.440;2023-04-06T06:08:17;100057.66;;;20.47;28.98
72024;BME280;59889;50.700;5.440;2023-04-06T06:10:42;100058.55;;;20.46;28.88
72024;BME280;59889;50.700;5.440;2023-04-06T06:13:07;100059.66;;;20.71;28.81
72024;BME280;59889;50.700;5.440;2023-04-06T06:15:32;100056.16;;;20.49;28.64
72024;BME280;59889;50.700;5.440;2023-04-06T06:17:57;100055.96;;;20.63;28.72
72024;BME280;59889;50.700;5.440;2023-04-06T06:20:23;100058.46;;;20.63;28.66
72024;BME280;59889;50.700;5.440;2023-04-06T06:22:48;100056.56;;;20.42;28.52
72024;BME280;59889;50.700;5.440;2023-04-06T06:25:14;100056.49;;;20.42;28.50
72024;BME280;59889;50.700;5.440;2023-04-06T06:27:39;100056.46;;;20.86;28.59
72024;BME280;59889;50.700;5.440;2023-04-06T06:30:05;100057.75;;;20.59;28.49
72024;BME280;59889;50.700;5.440;2023-04-06T06:32:29;100054.88;;;20.39;28.44
72024;BME280;59889;50.700;5.440;2023-04-06T06:34:55;100056.58;;;20.52;29.01
72024;BME280;59889;50.700;5.440;2023-04-06T06:37:20;100055.67;;;20.24;29.46
72024;BME280;59889;50.700;5.440;2023-04-06T06:39:46;100056.68;;;19.85;30.60
72024;BME280;59889;50.700;5.440;2023-04-06T06:42:11;100056.27;;;20.35;30.57
72024;BME280;59889;50.700;5.440;2023-04-06T06:44:36;100054.70;;;20.74;30.71
72024;BME280;59889;50.700;5.440;2023-04-06T06:47:01;100057.10;;;20.71;30.90
72024;BME280;59889;50.700;5.440;2023-04-06T06:49:27;100052.45;;;20.97;30.95
72024;BME280;59889;50.700;5.440;2023-04-06T06:51:52;100051.03;;;20.73;31.01
72024;BME280;59889;50.700;5.440;2023-04-06T06:54:17;100049.03;;;20.63;31.13
72024;BME280;59889;50.700;5.440;2023-04-06T06:56:42;100051.08;;;20.42;31.22
72024;BME280;59889;50.700;5.440;2023-04-06T06:59:07;100049.80;;;20.40;31.40
72024;BME280;59889;50.700;5.440;2023-04-06T07:01:32;100049.91;;;20.53;31.24
72024;BME280;59889;50.700;5.440;2023-04-06T07:03:57;100057.28;;;20.58;31.50
72024;BME280;59889;50.700;5.440;2023-04-06T07:06:22;100064.67;;;20.79;31.35
72024;BME280;59889;50.700;5.440;2023-04-06T07:08:47;100063.01;;;20.67;31.61
72024;BME280;59889;50.700;5.440;2023-04-06T07:11:12;100061.27;;;20.05;32.20
72024;BME280;59889;50.700;5.440;2023-04-06T07:13:38;100064.18;;;20.96;31.72
72024;BME280;59889;50.700;5.440;2023-04-06T07:16:03;100064.81;;;20.40;31.88
72024;BME280;59889;50.700;5.440;2023-04-06T07:18:28;100065.68;;;20.75;31.84
72024;BME280;59889;50.700;5.440;2023-04-06T07:20:54;100062.85;;;20.45;31.97
72024;BME280;59889;50.700;5.440;2023-04-06T07:23:19;100061.95;;;20.95;31.94
72024;BME280;59889;50.700;5.440;2023-04-06T07:25:44;100062.71;;;20.37;32.11
72024;BME280;59889;50.700;5.440;2023-04-06T07:28:09;100066.12;;;20.29;32.39
72024;BME280;59889;50.700;5.440;2023-04-06T07:30:36;100064.43;;;20.68;32.30
72024;BME280;59889;50.700;5.440;2023-04-06T07:33:00;100065.69;;;20.67;32.50
72024;BME280;59889;50.700;5.440;2023-04-06T07:35:26;100065.61;;;20.43;32.63
72024;BME280;59889;50.700;5.440;2023-04-06T07:37:50;100063.43;;;20.94;32.69
72024;BME280;59889;50.700;5.440;2023-04-06T07:40:15;100062.63;;;20.68;32.74
72024;BME280;59889;50.700;5.440;2023-04-06T07:42:40;100063.86;;;20.45;32.74
72024;BME280;59889;50.700;5.440;2023-04-06T07:45:06;100063.60;;;20.47;32.71
72024;BME280;59889;50.700;5.440;2023-04-06T07:47:30;100062.76;;;20.46;32.73
72024;BME280;59889;50.700;5.440;2023-04-06T07:49:55;100061.62;;;20.52;32.67
72024;BME280;59889;50.700;5.440;2023-04-06T07:52:21;100062.14;;;20.73;32.73
72024;BME280;59889;50.700;5.440;2023-04-06T07:54:46;100061.14;;;20.71;33.08
72024;BME280;59889;50.700;5.440;2023-04-06T07:57:11;100063.82;;;20.58;32.95
72024;BME280;59889;50.700;5.440;2023-04-06T07:59:36;100066.19;;;20.61;32.94
72024;BME280;59889;50.700;5.440;2023-04-06T08:02:01;100062.92;;;20.44;33.11
72024;BME280;59889;50.700;5.440;2023-04-06T08:04:26;100060.76;;;20.51;33.07
72024;BME280;59889;50.700;5.440;2023-04-06T08:06:51;100060.29;;;20.26;33.08
72024;BME280;59889;50.700;5.440;2023-04-06T08:09:16;100062.03;;;20.53;33.07
72024;BME280;59889;50.700;5.440;2023-04-06T08:11:41;100062.80;;;20.87;32.95
72024;BME280;59889;50.700;5.440;2023-04-06T08:14:06;100065.53;;;20.62;32.97
72024;BME280;59889;50.700;5.440;2023-04-06T08:16:31;100065.07;;;20.77;33.07
72024;BME280;59889;50.700;5.440;2023-04-06T08:18:57;100065.25;;;20.55;33.05
72024;BME280;59889;50.700;5.440;2023-04-06T08:21:22;100066.08;;;20.80;33.06
72024;BME280;59889;50.700;5.440;2023-04-06T08:23:47;100067.83;;;20.22;33.17
72024;BME280;59889;50.700;5.440;2023-04-06T08:26:12;100067.18;;;20.45;33.20
72024;BME280;59889;50.700;5.440;2023-04-06T08:28:37;100068.65;;;20.53;33.12
72024;BME280;59889;50.700;5.440;2023-04-06T08:31:04;100068.50;;;20.60;33.03
72024;BME280;59889;50.700;5.440;2023-04-06T08:33:27;100066.74;;;20.47;33.19
72024;BME280;59889;50.700;5.440;2023-04-06T08:35:52;100067.95;;;20.81;33.09
72024;BME280;59889;50.700;5.440;2023-04-06T08:38:17;100071.34;;;20.53;33.13
72024;BME280;59889;50.700;5.440;2023-04-06T08:40:42;100072.51;;;20.22;33.22
72024;BME280;59889;50.700;5.440;2023-04-06T08:43:09;100069.71;;;20.65;33.29
72024;BME280;59889;50.700;5.440;2023-04-06T08:45:33;100069.63;;;20.36;33.09
72024;BME280;59889;50.700;5.440;2023-04-06T08:47:58;100069.12;;;20.44;33.25
72024;BME280;59889;50.700;5.440;2023-04-06T08:50:24;100068.52;;;20.23;33.27
72024;BME280;59889;50.700;5.440;2023-04-06T08:52:48;100069.31;;;20.63;33.06
72024;BME280;59889;50.700;5.440;2023-04-06T08:55:13;100070.19;;;20.49;33.22
72024;BME280;59889;50.700;5.440;2023-04-06T08:57:38;100070.79;;;20.54;33.19
72024;BME280;59889;50.700;5.440;2023-04-06T09:00:05;100075.36;;;20.57;33.15
72024;BME280;59889;50.700;5.440;2023-04-06T09:02:28;100074.49;;;20.50;33.26
72024;BME280;59889;50.700;5.440;2023-04-06T09:04:54;100074.40;;;20.34;33.16
72024;BME280;59889;50.700;5.440;2023-04-06T09:07:18;100079.02;;;20.23;33.28
72024;BME280;59889;50.700;5.440;2023-04-06T09:09:44;100079.77;;;20.55;33.20
72024;BME280;59889;50.700;5.440;2023-04-06T09:12:09;100082.93;;;20.32;33.18
72024;BME280;59889;50.700;5.440;2023-04-06T09:14:35;100081.90;;;20.31;33.16
72024;BME280;59889;50.700;5.440;2023-04-06T09:16:59;100084.58;;;20.35;33.10
72024;BME280;59889;50.700;5.440;2023-04-06T09:19:24;100084.24;;;20.74;33.20
72024;BME280;59889;50.700;5.440;2023-04-06T09:21:49;100084.20;;;20.78;33.16
72024;BME280;59889;50.700;5.440;2023-04-06T09:24:14;100086.30;;;20.48;33.22
72024;BME280;59889;50.700;5.440;2023-04-06T09:26:45;100085.67;;;20.45;33.23
72024;BME280;59889;50.700;5.440;2023-04-06T09:29:04;100085.04;;;20.55;33.12
72024;BME280;59889;50.700;5.440;2023-04-06T09:31:30;100083.80;;;20.25;33.17
72024;BME280;59889;50.700;5.440;2023-04-06T09:33:55;100083.42;;;20.32;33.10
72024;BME280;59889;50.700;5.440;2023-04-06T09:36:20;100084.45;;;20.39;33.29
72024;BME280;59889;50.700;5.440;2023-04-06T09:38:51;100084.21;;;20.32;33.13
72024;BME280;59889;50.700;5.440;2023-04-06T09:41:10;100084.53;;;20.72;33.20
72024;BME280;59889;50.700;5.440;2023-04-06T09:43:35;100084.95;;;20.55;33.11
72024;BME280;59889;50.700;5.440;2023-04-06T09:46:00;100084.58;;;20.66;33.25
72024;BME280;59889;50.700;5.440;2023-04-06T09:48:26;100087.49;;;20.46;33.25
72024;BME280;59889;50.700;5.440;2023-04-06T09:50:53;100086.77;;;20.36;33.34
72024;BME280;59889;50.700;5.440;2023-04-06T09:53:16;100087.86;;;20.56;33.15
72024;BME280;59889;50.700;5.440;2023-04-06T09:55:43;100086.65;;;20.47;33.26
72024;BME280;59889;50.700;5.440;2023-04-06T09:58:07;100086.79;;;20.24;33.23
72024;BME280;59889;50.700;5.440;2023-04-06T10:00:32;100080.56;;;20.25;33.18
72024;BME280;59889;50.700;5.440;2023-04-06T10:02:59;100083.42;;;20.50;33.19
72024;BME280;59889;50.700;5.440;2023-04-06T10:05:27;100081.15;;;20.52;33.18
72024;BME280;59889;50.700;5.440;2023-04-06T10:07:48;100085.36;;;20.20;33.27
72024;BME280;59889;50.700;5.440;2023-04-06T10:10:14;100084.31;;;20.45;33.27
72024;BME280;59889;50.700;5.440;2023-04-06T10:12:38;100082.81;;;20.53;33.17
72024;BME280;59889;50.700;5.440;2023-04-06T10:15:02;100081.78;;;20.53;33.20
72024;BME280;59889;50.700;5.440;2023-04-06T10:17:27;100079.40;;;20.51;33.22
72024;BME280;59889;50.700;5.440;2023-04-06T10:19:54;100078.24;;;20.81;33.15
72024;BME280;59889;50.700;5.440;2023-04-06T10:22:24;100078.17;;;20.47;33.27
72024;BME280;59889;50.700;5.440;2023-04-06T10:24:43;100078.30;;;20.29;33.47
72024;BME280;59889;50.700;5.440;2023-04-06T10:27:07;100073.05;;;20.62;33.40
72024;BME280;59889;50.700;5.440;2023-04-06T10:29:42;100075.51;;;20.41;33.37
72024;BME280;59889;50.700;5.440;2023-04-06T10:31:58;100074.64;;;20.24;33.28
72024;BME280;59889;50.700;5.440;2023-04-06T10:34:36;100070.81;;;20.21;33.30
72024;BME280;59889;50.700;5.440;2023-04-06T10:36:48;100070.08;;;20.67;33.35
72024;BME280;59889;50.700;5.440;2023-04-06T10:39:13;100069.23;;;20.72;33.27
72024;BME280;59889;50.700;5.440;2023-04-06T10:41:42;100069.77;;;20.70;33.32
72024;BME280;59889;50.700;5.440;2023-04-06T10:44:04;100071.61;;;20.72;33.28
72024;BME280;59889;50.700;5.440;2023-04-06T10:46:30;100069.59;;;20.41;33.36
72024;BME280;59889;50.700;5.440;2023-04-06T10:48:54;100069.39;;;20.42;33.36
72024;BME280;59889;50.700;5.440;2023-04-06T10:51:24;100069.38;;;20.14;33.39
72024;BME280;59889;50.700;5.440;2023-04-06T10:53:45;100067.49;;;20.27;33.27
72024;BME280;59889;50.700;5.440;2023-04-06T10:56:10;100067.47;;;20.39;33.39
72024;BME280;59889;50.700;5.440;2023-04-06T10:58:34;100066.65;;;20.38;33.39
72024;BME280;59889;50.700;5.440;2023-04-06T11:00:59;100065.14;;;20.06;33.50
72024;BME280;59889;50.700;5.440;2023-04-06T11:03:24;100062.27;;;20.19;33.36
72024;BME280;59889;50.700;5.440;2023-04-06T11:05:50;100060.92;;;20.23;33.30
72024;BME280;59889;50.700;5.440;2023-04-06T11:08:23;100065.12;;;20.65;33.40
72024;BME280;59889;50.700;5.440;2023-04-06T11:10:40;100065.85;;;20.46;33.32
72024;BME280;59889;50.700;5.440;2023-04-06T11:13:05;100061.26;;;20.61;33.41
72024;BME280;59889;50.700;5.440;2023-04-06T11:15:34;100065.17;;;20.68;33.37
72024;BME280;59889;50.700;5.440;2023-04-06T11:17:55;100063.84;;;20.64;33.39
72024;BME280;59889;50.700;5.440;2023-04-06T11:20:20;100068.87;;;20.64;33.40
72024;BME280;59889;50.700;5.440;2023-04-06T11:22:50;100068.50;;;20.18;33.37
72024;BME280;59889;50.700;5.440;2023-04-06T11:25:10;100067.97;;;20.58;33.44
72024;BME280;59889;50.700;5.440;2023-04-06T11:27:35;100062.58;;;20.39;33.41
72024;BME280;59889;50.700;5.440;2023-04-06T11:30:01;100062.86;;;20.35;33.42
72024;BME280;59889;50.700;5.440;2023-04-06T11:32:25;100061.95;;;20.11;33.44
72024;BME280;59889;50.700;5.440;2023-04-06T11:34:51;100059.19;;;20.61;33.44
72024;BME280;59889;50.700;5.440;2023-04-06T11:37:16;100052.27;;;20.25;33.30
72024;BME280;59889;50.700;5.440;2023-04-06T11:39:46;100051.56;;;20.08;33.48
72024;BME280;59889;50.700;5.440;2023-04-06T11:42:06;100048.79;;;20.68;33.35
72024;BME280;59889;50.700;5.440;2023-04-06T11:44:33;100047.63;;;20.28;33.28
72024;BME280;59889;50.700;5.440;2023-04-06T11:46:57;100043.48;;;20.73;33.32
72024;BME280;59889;50.700;5.440;2023-04-06T11:49:22;100038.82;;;20.28;33.58
72024;BME280;59889;50.700;5.440;2023-04-06T11:51:47;100038.29;;;20.65;33.41
72024;BME280;59889;50.700;5.440;2023-04-06T11:54:12;100031.70;;;20.38;33.47
72024;BME280;59889;50.700;5.440;2023-04-06T11:56:37;100031.37;;;20.45;33.39
72024;BME280;59889;50.700;5.440;2023-04-06T11:59:02;100027.92;;;20.64;33.37
72024;BME280;59889;50.700;5.440;2023-04-06T12:01:28;100028.31;;;20.34;33.37
72024;BME280;59889;50.700;5.440;2023-04-06T12:03:53;100029.96;;;20.37;33.27
72024;BME280;59889;50.700;5.440;2023-04-06T12:06:18;100030.21;;;20.59;33.27
72024;BME280;59889;50.700;5.440;2023-04-06T12:08:42;100031.43;;;20.19;33.42
72024;BME280;59889;50.700;5.440;2023-04-06T12:11:08;100029.12;;;19.94;33.45
72024;BME280;59889;50.700;5.440;2023-04-06T12:13:33;100027.47;;;20.48;33.41
72024;BME280;59889;50.700;5.440;2023-04-06T12:15:58;100029.16;;;20.24;33.44
72024;BME280;59889;50.700;5.440;2023-04-06T12:18:23;100025.79;;;20.33;33.35
72024;BME280;59889;50.700;5.440;2023-04-06T12:20:48;100030.89;;;20.09;33.34
72024;BME280;59889;50.700;5.440;2023-04-06T12:23:13;100030.04;;;20.58;33.33
72024;BME280;59889;50.700;5.440;2023-04-06T12:25:39;100033.74;;;20.03;33.45
72024;BME280;59889;50.700;5.440;2023-04-06T12:28:03;100033.84;;;20.56;33.40
72024;BME280;59889;50.700;5.440;2023-04-06T12:30:28;100032.45;;;20.07;33.44
72024;BME280;59889;50.700;5.440;2023-04-06T12:32:53;100029.86;;;20.06;33.49
72024;BME280;59889;50.700;5.440;2023-04-06T12:35:19;100025.38;;;20.31;33.52
72024;BME280;59889;50.700;5.440;2023-04-06T12:37:44;100022.67;;;20.55;33.52